Time;durP1;ratioP1;P1;durP2;ratioP2;P2;SDS_P1;SDS_P2;PMS_P1;PMS_P2;Temp;Humidity;BMP_temperature;BMP_pressure;BME280_temperature;BME280_humidity;BME280_pressure;Samples;Min_cycle;Max_cycle;Signal;HPM_P1;HPM_P2
2022/08/13 00:01:15;;;;;;;7.80;4.05;;;21.30;99.90;;;;;;5022531;28;20191;-75
2022/08/13 00:03:43;;;;;;;9.10;4.55;;;21.30;99.90;;;;;;5020997;28;20045;-75
2022/08/13 00:06:10;;;;;;;;;;;21.30;99.90;;;;;;5022667;28;20057;-74
2022/08/13 00:08:38;;;;;;;7.28;3.88;;;21.20;99.90;;;;;;5027940;28;19931;-76
2022/08/13 00:11:06;;;;;;;7.57;4.00;;;21.10;99.90;;;;;;5025005;28;20091;-75
2022/08/13 00:13:33;;;;;;;5.53;3.88;;;21.10;99.90;;;;;;5026910;28;20155;-76
2022/08/13 00:16:00;;;;;;;8.35;4.00;;;21.20;99.90;;;;;;5028690;28;20041;-75
2022/08/13 00:18:29;;;;;;;7.47;4.00;;;21.10;99.90;;;;;;5028645;28;20049;-76
2022/08/13 00:20:58;;;;;;;8.40;4.47;;;21.10;99.90;;;;;;5029479;28;20120;-77
2022/08/13 00:23:29;;;;;;;5.38;3.60;;;21.10;99.90;;;;;;5031121;28;20060;-75
2022/08/13 00:25:57;;;;;;;6.45;3.78;;;21.10;99.90;;;;;;5024957;28;20033;-75
2022/08/13 00:28:28;;;;;;;5.50;3.53;;;21.10;99.90;;;;;;5027518;28;20049;-75
2022/08/13 00:30:55;;;;;;;6.32;3.70;;;21.10;99.90;;;;;;5023736;28;20045;-75
2022/08/13 00:33:22;;;;;;;5.40;3.50;;;21.20;99.30;;;;;;5026472;28;20054;-76
2022/08/13 00:35:50;;;;;;;8.70;3.83;;;21.20;98.70;;;;;;5023831;28;20044;-75
2022/08/13 00:38:22;;;;;;;5.45;3.95;;;21.20;98.20;;;;;;5028233;28;20104;-76
2022/08/13 00:40:57;;;;;;;4.97;3.38;;;21.30;98.00;;;;;;5023452;28;20041;-76
2022/08/13 00:43:24;;;;;;;6.72;3.72;;;21.20;98.30;;;;;;5030907;28;20053;-75
2022/08/13 00:45:50;;;;;;;7.38;3.72;;;21.20;99.00;;;;;;5024141;28;20033;-76
2022/08/13 00:51:01;;;;;;;6.00;3.70;;;21.00;99.60;;;;;;5026420;28;20042;-76
2022/08/13 00:53:30;;;;;;;6.85;3.20;;;21.00;99.10;;;;;;5026038;28;20046;-75
2022/08/13 00:55:58;;;;;;;7.57;3.40;;;21.00;98.70;;;;;;5023112;28;20045;-76
2022/08/13 00:58:27;;;;;;;8.27;3.45;;;21.00;97.90;;;;;;5029266;28;20389;-76
2022/08/13 01:00:57;;;;;;;5.90;3.33;;;21.00;96.80;;;;;;5022782;28;21974;-76
2022/08/13 01:03:25;;;;;;;5.53;3.50;;;21.00;95.80;;;;;;5026567;28;20526;-75
2022/08/13 01:05:52;;;;;;;6.03;3.10;;;21.00;95.20;;;;;;5024783;28;20049;-75
2022/08/13 01:08:19;;;;;;;7.15;3.33;;;21.10;95.00;;;;;;5028039;28;20107;-76
2022/08/13 01:10:48;;;;;;;5.55;3.42;;;21.10;94.80;;;;;;5022084;28;20495;-76
2022/08/13 01:13:16;;;;;;;5.65;3.40;;;21.00;94.40;;;;;;5020318;28;20396;-76
2022/08/13 01:15:42;;;;;;;8.15;3.50;;;21.10;94.10;;;;;;5021865;28;20041;-75
2022/08/13 01:18:13;;;;;;;5.47;3.30;;;21.00;94.00;;;;;;5020867;28;20049;-75
2022/08/13 01:21:01;;;;;;;5.30;3.40;;;21.00;93.70;;;;;;5022846;28;20095;-76
2022/08/13 01:23:28;;;;;;;6.35;3.55;;;21.00;93.20;;;;;;5027323;28;20045;-76
2022/08/13 01:25:54;;;;;;;;;;;21.00;93.40;;;;;;5023174;28;20505;-76
2022/08/13 01:28:22;;;;;;;4.38;3.15;;;21.00;92.80;;;;;;5020419;28;19932;-76
2022/08/13 01:30:52;;;;;;;6.70;3.40;;;21.00;93.50;;;;;;5026788;28;20046;-74
2022/08/13 01:33:18;;;;;;;7.40;3.63;;;20.90;93.10;;;;;;5029583;28;20062;-76
2022/08/13 01:35:48;;;;;;;5.55;3.60;;;21.00;93.20;;;;;;5023290;28;20045;-76
2022/08/13 01:38:15;;;;;;;6.43;3.60;;;21.00;92.80;;;;;;5025763;28;20396;-76
2022/08/13 01:40:43;;;;;;;6.32;3.60;;;21.00;93.10;;;;;;5025672;28;20048;-76
2022/08/13 01:43:10;;;;;;;7.15;3.60;;;20.90;93.10;;;;;;5026429;28;20095;-76
2022/08/13 01:45:37;;;;;;;6.95;3.58;;;20.90;93.00;;;;;;5026557;28;20050;-75
2022/08/13 01:50:48;;;;;;;6.93;3.97;;;20.80;92.80;;;;;;5021785;28;20055;-76
2022/08/13 01:53:16;;;;;;;8.05;3.60;;;20.80;92.50;;;;;;5021047;28;20133;-76
2022/08/13 01:55:48;;;;;;;5.70;3.88;;;20.80;92.00;;;;;;5016630;28;20040;-76
2022/08/13 01:58:22;;;;;;;6.75;3.88;;;20.80;92.10;;;;;;5023656;28;20088;-76
2022/08/13 02:00:51;;;;;;;4.93;3.80;;;20.80;92.20;;;;;;5021922;28;20137;-76
2022/08/13 02:03:19;;;;;;;6.53;3.45;;;20.80;92.00;;;;;;5020765;28;20538;-75
2022/08/13 02:05:47;;;;;;;5.68;3.75;;;20.70;92.30;;;;;;5019675;28;20042;-75
2022/08/13 02:08:14;;;;;;;8.85;3.70;;;20.70;92.20;;;;;;5018552;28;20426;-76
2022/08/13 02:10:43;;;;;;;6.22;3.60;;;20.70;92.50;;;;;;5024686;28;20112;-75
2022/08/13 02:13:14;;;;;;;5.88;3.22;;;20.70;92.10;;;;;;5027663;28;20049;-76
2022/08/13 02:15:41;;;;;;;5.50;3.47;;;20.70;92.20;;;;;;5024189;28;20056;-76
2022/08/13 02:18:17;;;;;;;4.93;3.38;;;20.60;92.40;;;;;;5023846;28;20064;-76
2022/08/13 02:20:44;;;;;;;5.55;3.55;;;20.70;92.20;;;;;;5021579;28;20041;-76
2022/08/13 02:23:16;;;;;;;4.88;3.70;;;20.60;92.40;;;;;;5017811;28;20118;-76
2022/08/13 02:25:45;;;;;;;5.13;3.67;;;20.60;92.00;;;;;;5022394;28;20592;-76
2022/08/13 02:28:14;;;;;;;6.90;3.50;;;20.60;92.20;;;;;;5020327;28;20567;-77
2022/08/13 02:30:41;;;;;;;3.50;2.97;;;20.60;92.90;;;;;;5019160;28;20056;-76
2022/08/13 02:33:08;;;;;;;6.95;3.70;;;20.50;93.30;;;;;;5022107;28;20033;-76
2022/08/13 02:35:35;;;;;;;5.03;3.35;;;20.40;93.50;;;;;;5023793;28;20054;-77
2022/08/13 02:38:02;;;;;;;3.88;3.47;;;20.40;93.70;;;;;;5022371;28;20122;-76
2022/08/13 02:43:12;;;;;;;6.07;3.65;;;20.30;94.90;;;;;;5028690;28;20053;-76
2022/08/13 02:45:39;;;;;;;6.90;3.55;;;20.20;95.40;;;;;;5023333;28;20038;-76
2022/08/13 02:48:05;;;;;;;5.07;3.60;;;20.10;96.10;;;;;;5026422;28;20150;-77
2022/08/13 02:50:33;;;;;;;7.28;3.85;;;20.00;96.60;;;;;;5023962;28;20056;-77
2022/08/13 02:52:59;;;;;;;7.93;3.35;;;19.90;96.80;;;;;;5023175;28;20096;-76
2022/08/13 02:55:29;;;;;;;8.43;3.42;;;19.90;96.80;;;;;;5018419;28;20185;-76
2022/08/13 02:57:55;;;;;;;5.22;3.63;;;19.90;96.00;;;;;;5021089;28;20049;-76
2022/08/13 03:00:21;;;;;;;7.35;3.70;;;19.90;95.40;;;;;;5023733;28;20045;-76
2022/08/13 03:02:47;;;;;;;7.32;3.60;;;20.00;95.20;;;;;;5025498;28;20053;-76
2022/08/13 03:05:18;;;;;;;9.05;3.63;;;19.90;95.00;;;;;;5025013;28;20520;-76
2022/08/13 03:07:47;;;;;;;6.00;3.40;;;20.00;95.10;;;;;;5025759;28;20068;-76
2022/08/13 03:10:15;;;;;;;5.78;3.90;;;20.00;94.90;;;;;;5024498;28;20072;-76
2022/08/13 03:12:47;;;;;;;4.60;3.40;;;20.00;94.60;;;;;;5023888;28;20046;-76
2022/08/13 03:15:14;;;;;;;4.03;3.53;;;19.90;94.80;;;;;;5020150;28;20618;-76
2022/08/13 03:17:41;;;;;;;5.30;3.58;;;19.90;95.30;;;;;;5024980;28;20492;-77
2022/08/13 03:20:09;;;;;;;4.93;3.95;;;19.90;96.10;;;;;;5024075;28;20060;-76
2022/08/13 03:22:48;;;;;;;6.80;4.00;;;19.80;96.60;;;;;;5024357;28;20088;-74
2022/08/13 03:25:15;;;;;;;8.02;3.65;;;19.70;97.20;;;;;;5025451;28;20042;-77
2022/08/13 03:27:41;;;;;;;9.02;3.85;;;19.60;97.60;;;;;;5018320;28;20061;-76
2022/08/13 03:30:07;;;;;;;4.95;3.60;;;19.60;97.50;;;;;;5018277;28;20489;-77
2022/08/13 03:32:40;;;;;;;10.00;4.32;;;19.60;97.30;;;;;;5025005;28;20034;-77
2022/08/13 03:35:08;;;;;;;4.55;3.92;;;19.60;96.90;;;;;;5020761;28;20037;-77
2022/08/13 03:37:35;;;;;;;7.13;3.97;;;19.60;96.40;;;;;;5028523;28;20042;-76
2022/08/13 03:40:02;;;;;;;8.35;3.80;;;19.70;96.70;;;;;;5024446;28;20069;-77
2022/08/13 03:42:28;;;;;;;8.43;3.92;;;19.60;96.40;;;;;;5024374;28;20773;-76
2022/08/13 03:44:54;;;;;;;7.65;4.05;;;19.60;96.50;;;;;;5027853;28;20037;-76
2022/08/13 03:47:20;;;;;;;7.15;3.75;;;19.60;96.70;;;;;;5027777;28;20046;-77
2022/08/13 03:49:46;;;;;;;6.65;4.10;;;19.60;97.10;;;;;;5027292;28;20496;-76
2022/08/13 03:52:13;;;;;;;5.97;3.85;;;19.50;97.60;;;;;;5023883;28;20073;-76
2022/08/13 03:54:39;;;;;;;7.25;4.00;;;19.40;97.90;;;;;;5024765;28;20064;-77
2022/08/13 03:57:05;;;;;;;9.10;4.23;;;19.40;98.20;;;;;;5020704;28;20041;-76
2022/08/13 03:59:31;;;;;;;7.13;3.90;;;19.30;98.50;;;;;;5023754;28;20052;-76
2022/08/13 04:01:59;;;;;;;8.25;4.07;;;19.20;99.00;;;;;;5025033;28;20416;-76
2022/08/13 04:04:25;;;;;;;6.00;3.75;;;19.10;99.40;;;;;;5026893;28;20041;-77
2022/08/13 04:06:52;;;;;;;7.35;3.92;;;19.00;99.80;;;;;;5027203;28;20403;-76
2022/08/13 04:09:18;;;;;;;5.10;4.05;;;19.00;99.90;;;;;;5023822;28;20163;-77
2022/08/13 04:11:43;;;;;;;5.60;4.07;;;18.90;99.90;;;;;;5028567;28;20120;-77
2022/08/13 04:14:09;;;;;;;8.20;4.20;;;18.90;99.90;;;;;;5022231;28;20051;-77
2022/08/13 04:16:34;;;;;;;7.57;4.28;;;18.80;99.90;;;;;;5027239;28;20045;-77
2022/08/13 04:19:03;;;;;;;6.05;4.32;;;18.70;99.90;;;;;;5026160;28;20094;-77
2022/08/13 04:21:31;;;;;;;6.45;4.50;;;18.70;99.90;;;;;;5027589;28;20068;-76
2022/08/13 04:23:57;;;;;;;7.88;4.00;;;18.60;99.90;;;;;;5027392;28;20120;-77
2022/08/13 04:26:25;;;;;;;5.13;4.05;;;18.50;99.90;;;;;;5023440;28;20042;-77
2022/08/13 04:28:53;;;;;;;7.90;4.40;;;18.50;99.90;;;;;;5027406;28;20107;-77
2022/08/13 04:31:19;;;;;;;8.27;4.30;;;18.40;99.90;;;;;;5026688;28;20407;-76
2022/08/13 04:33:45;;;;;;;8.57;4.47;;;18.30;99.90;;;;;;5028060;28;20128;-77
2022/08/13 04:36:11;;;;;;;7.25;4.50;;;18.30;99.90;;;;;;5027483;28;20046;-76
2022/08/13 04:38:37;;;;;;;6.22;4.03;;;18.30;99.90;;;;;;5029470;28;20049;-77
2022/08/13 04:41:03;;;;;;;7.30;4.25;;;18.30;99.90;;;;;;5028111;28;20053;-77
2022/08/13 04:43:29;;;;;;;7.95;4.13;;;18.30;99.90;;;;;;5029215;28;20057;-75
2022/08/13 04:45:59;;;;;;;7.35;4.20;;;18.30;99.90;;;;;;5026208;28;20629;-75
2022/08/13 04:48:25;;;;;;;5.22;4.47;;;18.30;99.90;;;;;;5029643;28;20073;-77
2022/08/13 04:50:52;;;;;;;6.32;4.40;;;18.30;99.90;;;;;;5028741;28;20046;-75
2022/08/13 04:53:29;;;;;;;7.47;3.92;;;18.40;99.90;;;;;;5025980;28;20045;-76
2022/08/13 04:55:56;;;;;;;8.52;4.28;;;18.50;99.90;;;;;;5021133;28;20507;-76
2022/08/13 04:58:23;;;;;;;8.25;4.20;;;18.60;99.90;;;;;;5022340;28;20053;-76
2022/08/13 05:00:50;;;;;;;6.53;4.38;;;18.70;99.90;;;;;;5027025;28;20357;-76
2022/08/13 05:03:21;;;;;;;20.02;4.07;;;18.90;99.90;;;;;;5024741;28;20088;-77
2022/08/13 05:05:49;;;;;;;7.25;4.10;;;18.90;99.90;;;;;;5022718;28;20049;-76
2022/08/13 05:08:15;;;;;;;8.73;4.10;;;19.00;99.90;;;;;;5028242;28;21063;-77
2022/08/13 05:10:43;;;;;;;6.32;3.80;;;19.10;99.90;;;;;;5030520;28;20073;-77
2022/08/13 05:13:27;;;;;;;;;;;19.20;99.90;;;;;;5024391;28;20057;-76
2022/08/13 05:15:56;;;;;;;6.45;4.22;;;19.20;99.90;;;;;;5036744;28;19936;-77
2022/08/13 05:18:23;;;;;;;7.13;4.00;;;19.30;99.90;;;;;;5027019;28;20041;-75
2022/08/13 05:20:52;;;;;;;4.05;3.65;;;19.40;99.60;;;;;;5023745;28;20124;-77
2022/08/13 05:23:19;;;;;;;7.97;4.03;;;19.50;99.40;;;;;;5025367;28;20049;-76
2022/08/13 05:25:45;;;;;;;5.88;3.95;;;19.60;99.40;;;;;;5024414;28;20052;-76
2022/08/13 05:28:11;;;;;;;7.43;4.10;;;19.70;99.40;;;;;;5025934;28;20045;-77
2022/08/13 05:30:39;;;;;;;7.88;4.00;;;19.70;99.00;;;;;;5021075;28;20488;-76
2022/08/13 05:33:13;;;;;;;7.53;3.85;;;19.80;99.00;;;;;;5026500;28;20041;-77
2022/08/13 05:35:41;;;;;;;7.38;4.22;;;19.90;98.50;;;;;;5019653;28;20054;-76
2022/08/13 05:38:07;;;;;;;9.15;3.97;;;19.90;98.10;;;;;;5026554;28;20064;-77
2022/08/13 05:40:33;;;;;;;6.50;3.70;;;20.00;98.20;;;;;;5023831;28;20041;-75
2022/08/13 05:42:59;;;;;;;6.55;3.60;;;20.10;98.30;;;;;;5023972;28;20244;-76
2022/08/13 05:45:25;;;;;;;5.55;3.65;;;20.10;98.30;;;;;;5026316;28;20103;-76
2022/08/13 05:47:52;;;;;;;7.15;3.78;;;20.20;98.10;;;;;;5020643;28;20041;-75
2022/08/13 05:50:17;;;;;;;4.55;3.55;;;20.30;97.40;;;;;;5024564;28;20049;-73
2022/08/13 05:52:43;;;;;;;7.68;3.65;;;20.30;97.30;;;;;;5021841;28;20042;-77
2022/08/13 05:55:14;;;;;;;5.47;3.60;;;20.40;97.40;;;;;;5024256;28;20055;-75
2022/08/13 05:57:40;;;;;;;7.15;4.25;;;20.50;97.40;;;;;;5021509;28;20136;-76
2022/08/13 06:05:38;;;;;;;6.80;3.78;;;20.70;96.50;;;;;;5016817;28;20057;-76
2022/08/13 06:08:07;;;;;;;7.95;3.65;;;20.80;95.60;;;;;;5020320;28;21179;-75
2022/08/13 06:10:33;;;;;;;6.18;3.38;;;20.90;95.90;;;;;;5020389;28;20045;-77
2022/08/13 06:12:59;;;;;;;8.35;3.97;;;20.90;95.90;;;;;;5023048;28;20476;-76
2022/08/13 06:15:26;;;;;;;7.07;3.22;;;21.00;95.80;;;;;;5023741;28;20103;-77
2022/08/13 06:17:52;;;;;;;6.63;4.18;;;21.00;94.90;;;;;;5025856;28;20124;-77
2022/08/13 06:20:22;;;;;;;8.52;3.50;;;21.10;95.00;;;;;;5024034;28;20061;-75
2022/08/13 06:22:48;;;;;;;4.95;3.50;;;21.10;95.00;;;;;;5017915;28;20053;-75
2022/08/13 06:25:17;;;;;;;7.63;3.42;;;21.20;94.70;;;;;;5022277;28;20045;-75
2022/08/13 06:27:43;;;;;;;8.98;3.70;;;21.30;94.90;;;;;;5027194;28;20065;-76
2022/08/13 06:30:11;;;;;;;10.25;3.83;;;21.40;95.50;;;;;;5024324;28;20088;-76
2022/08/13 06:32:37;;;;;;;8.20;3.85;;;21.50;94.50;;;;;;5027398;28;20053;-75
2022/08/13 06:35:06;;;;;;;4.63;3.10;;;21.50;93.10;;;;;;5023555;28;20033;-75
2022/08/13 06:37:32;;;;;;;5.95;3.33;;;21.60;94.10;;;;;;5028104;28;20384;-78
2022/08/13 06:40:00;;;;;;;10.23;3.87;;;21.70;94.60;;;;;;5020183;28;20572;-76
2022/08/13 06:42:28;;;;;;;6.25;3.05;;;21.80;94.90;;;;;;5020908;28;20087;-74
2022/08/13 06:44:54;;;;;;;5.15;2.90;;;21.90;94.20;;;;;;5026037;28;20141;-76
2022/08/13 06:47:23;;;;;;;8.30;2.90;;;22.00;94.80;;;;;;5026285;28;20033;-74
2022/08/13 06:49:49;;;;;;;4.40;2.88;;;22.10;94.40;;;;;;5023723;28;20056;-74
2022/08/13 06:52:15;;;;;;;7.45;3.45;;;22.10;92.70;;;;;;5023079;28;20073;-73
2022/08/13 06:54:42;;;;;;;3.40;2.85;;;22.20;92.60;;;;;;5022955;28;20096;-74
2022/08/13 06:57:09;;;;;;;8.43;3.03;;;22.30;92.00;;;;;;5024274;28;20072;-74
2022/08/13 06:59:39;;;;;;;4.75;3.03;;;22.40;93.10;;;;;;5022623;28;20037;-74
2022/08/13 07:02:05;;;;;;;6.10;2.78;;;22.50;92.70;;;;;;5019765;28;20143;-80
2022/08/13 07:04:30;;;;;;;5.10;2.60;;;22.60;93.20;;;;;;5026949;28;20045;-83
2022/08/13 07:06:58;;;;;;;6.90;2.72;;;22.60;92.30;;;;;;5020423;28;20455;-87
2022/08/13 07:09:24;;;;;;;7.75;2.50;;;22.70;93.50;;;;;;5029978;28;20212;-86
2022/08/13 07:11:50;;;;;;;6.45;2.28;;;22.90;94.30;;;;;;5028292;28;20136;-86
2022/08/13 07:14:16;;;;;;;5.55;2.80;;;22.90;93.80;;;;;;5028925;28;20056;-83
2022/08/13 07:16:44;;;;;;;4.47;2.60;;;23.00;92.30;;;;;;5026906;28;20444;-86
2022/08/13 07:19:11;;;;;;;3.55;2.50;;;23.10;91.30;;;;;;5025045;28;20049;-84
2022/08/13 07:21:39;;;;;;;7.05;2.30;;;23.20;91.60;;;;;;5030768;28;20048;-81
2022/08/13 07:24:07;;;;;;;3.38;2.58;;;23.30;90.50;;;;;;5031247;28;20041;-87
2022/08/13 07:26:36;;;;;;;8.88;2.45;;;23.40;90.50;;;;;;5031427;28;20095;-89
2022/08/13 07:29:04;;;;;;;4.50;2.40;;;23.40;89.00;;;;;;5031369;28;20038;-85
2022/08/13 07:31:34;;;;;;;5.20;2.20;;;23.50;87.30;;;;;;5033070;28;20077;-87
2022/08/13 07:34:06;;;;;;;4.10;2.55;;;23.60;90.00;;;;;;5026890;28;20053;-83
2022/08/13 07:36:36;;;;;;;6.22;2.20;;;23.70;86.90;;;;;;5029934;28;20050;-80
2022/08/13 07:39:09;;;;;;;6.05;2.30;;;23.80;87.30;;;;;;5032156;28;20045;-82
2022/08/13 07:41:45;;;;;;;4.25;2.20;;;23.90;81.50;;;;;;5030088;28;20050;-74
2022/08/13 07:44:20;;;;;;;6.00;2.20;;;24.00;82.30;;;;;;5032692;28;20053;-83
2022/08/13 07:46:48;;;;;;;5.75;2.28;;;24.20;79.50;;;;;;5023538;28;20042;-83
2022/08/13 07:49:15;;;;;;;4.75;2.08;;;24.20;80.10;;;;;;5030635;28;20061;-82
2022/08/13 07:51:42;;;;;;;6.70;2.30;;;24.40;83.00;;;;;;5025021;28;20052;-81
2022/08/13 07:54:09;;;;;;;5.15;2.10;;;24.40;81.70;;;;;;5023967;28;20060;-83
2022/08/13 07:56:36;;;;;;;6.35;2.40;;;24.50;77.40;;;;;;5030956;28;20034;-84
2022/08/13 07:59:09;;;;;;;7.55;2.03;;;24.60;77.00;;;;;;5030485;28;20504;-74
2022/08/13 08:01:52;;;;;;;2.88;2.10;;;24.80;77.60;;;;;;5024017;28;20072;-75
2022/08/13 08:04:20;;;;;;;5.38;2.28;;;24.90;75.50;;;;;;5020720;28;20068;-78
2022/08/13 08:06:48;;;;;;;3.05;2.20;;;24.90;76.10;;;;;;5026389;28;20037;-78
2022/08/13 08:09:18;;;;;;;5.45;2.13;;;25.10;74.00;;;;;;5024353;28;20448;-79
2022/08/13 08:14:30;;;;;;;4.20;2.10;;;25.20;71.60;;;;;;5019698;28;20046;-78
2022/08/13 08:17:00;;;;;;;6.22;2.20;;;25.30;70.50;;;;;;5023995;28;20134;-78
2022/08/13 08:19:28;;;;;;;4.50;1.95;;;25.40;67.60;;;;;;5019039;28;20133;-74
2022/08/13 08:22:01;;;;;;;6.05;2.13;;;25.50;70.20;;;;;;5016598;28;20042;-78
2022/08/13 08:24:32;;;;;;;3.67;1.98;;;25.60;65.60;;;;;;5026658;28;20143;-76
2022/08/13 08:27:10;;;;;;;6.60;2.03;;;25.70;66.80;;;;;;5023047;28;20056;-75
2022/08/13 08:29:38;;;;;;;3.83;1.83;;;25.80;66.40;;;;;;5020554;28;20041;-75
2022/08/13 08:32:05;;;;;;;3.45;2.38;;;25.90;63.00;;;;;;5029638;28;20485;-75
2022/08/13 08:34:31;;;;;;;5.22;2.00;;;26.00;63.60;;;;;;5016655;28;20172;-76
2022/08/13 08:36:57;;;;;;;3.50;2.00;;;26.10;63.50;;;;;;5032825;28;20038;-72
2022/08/13 08:44:56;;;;;;;3.63;2.10;;;26.40;60.20;;;;;;5029279;28;20116;-77
2022/08/13 08:47:28;;;;;;;4.05;1.98;;;26.50;58.20;;;;;;5030810;28;20068;-78
2022/08/13 08:49:57;;;;;;;5.35;1.95;;;26.60;57.90;;;;;;5020847;28;20468;-81
2022/08/13 08:53:19;;;;;;;6.68;2.30;;;26.70;57.60;;;;;;5027766;28;20563;-75
2022/08/13 08:55:15;;;;;;;3.70;2.20;;;26.70;56.60;;;;;;5025949;28;20191;-83
2022/08/13 08:57:44;;;;;;;2.53;2.20;;;26.90;57.30;;;;;;5028495;28;20056;-81
2022/08/13 09:00:15;;;;;;;3.22;1.98;;;26.90;56.50;;;;;;5027422;28;20055;-80
2022/08/13 09:02:43;;;;;;;4.10;2.15;;;27.00;55.10;;;;;;4994245;28;1093414;-79
2022/08/13 09:05:14;;;;;;;5.75;2.35;;;27.10;54.30;;;;;;5029865;28;20413;-82
2022/08/13 09:07:42;;;;;;;3.67;2.22;;;27.20;54.30;;;;;;5027967;28;20442;-79
2022/08/13 09:10:11;;;;;;;2.72;1.83;;;27.30;53.70;;;;;;5026239;28;20497;-79
2022/08/13 09:12:40;;;;;;;6.35;1.98;;;27.40;53.40;;;;;;5017828;28;20050;-77
2022/08/13 09:15:07;;;;;;;3.78;2.28;;;27.40;53.10;;;;;;5030249;28;20062;-83
2022/08/13 09:17:36;;;;;;;4.68;1.92;;;27.50;51.80;;;;;;5024009;28;20049;-78
2022/08/13 09:20:03;;;;;;;4.80;2.08;;;27.60;51.90;;;;;;5025188;28;20057;-81
2022/08/13 09:22:29;;;;;;;4.47;2.10;;;27.60;51.50;;;;;;5028379;28;20515;-76
2022/08/13 09:24:57;;;;;;;2.83;1.90;;;27.70;51.40;;;;;;5028227;28;20029;-75
2022/08/13 09:27:22;;;;;;;3.17;2.03;;;27.80;51.90;;;;;;5030544;28;20397;-75
2022/08/13 09:29:50;;;;;;;3.97;2.00;;;27.90;52.10;;;;;;5028090;28;20033;-74
2022/08/13 09:32:16;;;;;;;3.08;1.95;;;27.90;51.00;;;;;;5029113;28;20045;-77
2022/08/13 09:34:44;;;;;;;4.22;1.92;;;28.00;49.70;;;;;;5029711;28;20500;-76
2022/08/13 09:37:12;;;;;;;3.10;1.85;;;28.00;49.30;;;;;;5027854;28;20067;-75
2022/08/13 09:39:51;;;;;;;3.10;2.10;;;28.00;48.60;;;;;;5023709;28;20061;-75
2022/08/13 09:42:24;;;;;;;4.40;2.03;;;28.10;48.80;;;;;;5025165;28;20045;-75
2022/08/13 09:44:56;;;;;;;4.95;1.88;;;28.20;48.70;;;;;;5029920;28;20091;-77
2022/08/13 09:47:23;;;;;;;4.00;2.00;;;28.20;47.70;;;;;;5024198;28;20049;-77
2022/08/13 09:49:49;;;;;;;6.28;1.83;;;28.30;48.00;;;;;;5027211;28;20099;-76
2022/08/13 09:52:19;;;;;;;6.20;2.00;;;28.40;48.50;;;;;;5031372;28;20045;-75
2022/08/13 09:54:45;;;;;;;2.55;1.70;;;28.40;47.50;;;;;;5026278;28;20059;-75
2022/08/13 09:57:10;;;;;;;4.07;1.80;;;28.50;47.00;;;;;;5024948;28;20042;-77
2022/08/13 09:59:36;;;;;;;5.73;1.70;;;28.50;45.90;;;;;;5027764;28;20063;-75
2022/08/13 10:02:09;;;;;;;3.83;1.83;;;28.60;45.10;;;;;;5024227;28;20131;-76
2022/08/13 10:04:37;;;;;;;2.55;1.83;;;28.70;44.70;;;;;;5021035;28;20493;-76
2022/08/13 10:07:04;;;;;;;3.15;1.65;;;28.70;45.00;;;;;;5012466;28;20044;-75
2022/08/13 10:09:33;;;;;;;5.72;2.15;;;28.80;45.00;;;;;;5025908;28;20492;-74
2022/08/13 10:12:07;;;;;;;4.80;2.28;;;28.90;45.50;;;;;;5030560;28;20045;-73
2022/08/13 10:14:34;;;;;;;2.03;1.83;;;29.00;45.20;;;;;;5016849;28;20497;-74
2022/08/13 10:17:00;;;;;;;;;;;29.00;45.00;;;;;;5028319;28;20448;-74
2022/08/13 10:19:26;;;;;;;5.88;2.00;;;29.10;45.00;;;;;;5030704;28;19925;-73
2022/08/13 10:21:51;;;;;;;3.97;1.90;;;29.10;45.20;;;;;;5028417;28;20092;-73
2022/08/13 10:24:17;;;;;;;3.90;2.03;;;29.20;44.60;;;;;;5017333;28;20078;-73
2022/08/13 10:26:43;;;;;;;3.00;1.63;;;29.30;45.20;;;;;;5024944;28;20037;-74
2022/08/13 10:29:10;;;;;;;3.13;2.10;;;29.30;45.00;;;;;;5028010;28;20416;-74
2022/08/13 10:31:38;;;;;;;2.63;2.00;;;29.40;45.10;;;;;;5027123;28;20303;-71
2022/08/13 10:34:05;;;;;;;5.03;2.08;;;29.30;45.20;;;;;;5024567;28;20041;-70
2022/08/13 10:36:33;;;;;;;2.88;1.95;;;29.40;45.10;;;;;;5014639;28;20037;-76
2022/08/13 10:38:59;;;;;;;6.57;2.10;;;29.40;44.60;;;;;;5028996;28;20049;-73
2022/08/13 10:41:25;;;;;;;4.10;2.20;;;29.40;45.10;;;;;;5028117;28;20099;-75
2022/08/13 10:43:59;;;;;;;4.77;1.90;;;29.50;44.60;;;;;;5028539;28;20308;-76
2022/08/13 10:46:26;;;;;;;3.53;1.85;;;29.50;44.10;;;;;;5024403;28;20049;-74
2022/08/13 10:48:55;;;;;;;3.67;1.95;;;29.60;43.90;;;;;;5019209;28;20060;-74
2022/08/13 10:51:23;;;;;;;2.67;2.08;;;29.60;43.50;;;;;;5025296;28;20049;-74
2022/08/13 10:53:55;;;;;;;5.85;2.00;;;29.70;43.30;;;;;;5017131;28;20037;-77
2022/08/13 10:56:21;;;;;;;2.60;2.00;;;29.80;43.70;;;;;;5019907;28;20042;-75
2022/08/13 10:58:48;;;;;;;2.10;1.90;;;29.90;43.60;;;;;;5025766;28;20049;-77
2022/08/13 11:01:15;;;;;;;2.92;1.80;;;29.90;43.10;;;;;;5026950;28;20056;-75
2022/08/13 11:03:44;;;;;;;;;;;30.00;42.70;;;;;;5026201;28;20057;-76
2022/08/13 11:06:11;;;;;;;4.80;1.90;;;30.10;43.80;;;;;;5021507;28;19936;-74
2022/08/13 11:08:39;;;;;;;4.50;1.98;;;30.10;43.10;;;;;;5028064;28;20492;-79
2022/08/13 11:11:06;;;;;;;6.57;2.08;;;30.20;43.20;;;;;;5026417;28;20045;-77
2022/08/13 11:13:32;;;;;;;4.25;2.10;;;30.20;43.40;;;;;;5029365;28;20049;-73
2022/08/13 11:16:01;;;;;;;5.25;2.08;;;30.30;44.50;;;;;;5026374;28;20050;-75
2022/08/13 11:18:28;;;;;;;5.47;2.20;;;30.30;43.80;;;;;;5033464;28;20046;-75
2022/08/13 11:21:06;;;;;;;8.45;2.20;;;30.30;42.90;;;;;;5025665;28;20462;-73
2022/08/13 11:23:32;;;;;;;4.45;1.90;;;30.30;42.40;;;;;;5026606;28;20460;-74
2022/08/13 11:25:58;;;;;;;2.00;1.70;;;30.30;42.40;;;;;;5024653;28;20034;-77
2022/08/13 11:28:24;;;;;;;3.10;1.80;;;30.40;42.90;;;;;;5027185;28;20545;-83
2022/08/13 11:30:51;;;;;;;5.77;1.87;;;30.40;43.00;;;;;;5022827;28;20120;-77
2022/08/13 11:33:21;;;;;;;4.72;2.03;;;30.50;41.80;;;;;;5025524;28;20401;-77
2022/08/13 11:35:52;;;;;;;3.22;1.90;;;30.50;42.70;;;;;;5026335;28;20033;-79
2022/08/13 11:38:21;;;;;;;3.58;2.20;;;30.70;43.50;;;;;;5021821;28;20065;-75
2022/08/13 11:40:52;;;;;;;6.95;2.20;;;30.80;43.10;;;;;;5026762;28;20441;-79
2022/08/13 11:43:26;;;;;;;4.95;1.90;;;30.90;42.50;;;;;;5024222;28;20051;-78
2022/08/13 11:45:52;;;;;;;4.40;1.92;;;31.00;41.70;;;;;;5026212;28;20041;-78
2022/08/13 11:48:19;;;;;;;4.47;2.07;;;30.90;41.60;;;;;;5025581;28;20048;-82
2022/08/13 11:50:44;;;;;;;2.30;2.00;;;30.80;41.40;;;;;;5024865;28;20306;-75
2022/08/13 11:53:10;;;;;;;6.03;2.20;;;30.70;41.50;;;;;;5021780;28;20049;-75
2022/08/13 11:55:36;;;;;;;4.90;2.00;;;30.70;41.80;;;;;;5026915;28;20034;-76
2022/08/13 11:58:07;;;;;;;3.20;2.10;;;30.80;42.10;;;;;;5025989;28;20072;-77
2022/08/13 12:00:37;;;;;;;7.38;2.40;;;30.90;41.30;;;;;;5026793;28;20037;-76
2022/08/13 12:03:04;;;;;;;3.30;2.30;;;31.00;41.30;;;;;;5026419;28;20057;-78
2022/08/13 12:05:30;;;;;;;4.57;2.15;;;31.00;41.50;;;;;;5027916;28;20041;-76
2022/08/13 12:07:56;;;;;;;5.00;2.00;;;31.10;40.80;;;;;;5027999;28;20535;-73
2022/08/13 12:10:22;;;;;;;5.25;2.05;;;31.10;40.90;;;;;;5030474;28;20053;-80
2022/08/13 12:12:48;;;;;;;5.97;2.25;;;31.10;40.40;;;;;;5024660;28;20400;-78
2022/08/13 12:15:14;;;;;;;2.92;2.20;;;31.20;40.40;;;;;;5028548;28;20048;-82
2022/08/13 12:17:45;;;;;;;2.23;1.90;;;31.30;40.10;;;;;;5029969;28;20049;-78
2022/08/13 12:20:14;;;;;;;6.97;2.30;;;31.30;40.10;;;;;;5029694;28;20094;-75
2022/08/13 12:22:40;;;;;;;3.05;2.08;;;31.40;41.00;;;;;;5015299;28;20056;-75
2022/08/13 12:25:07;;;;;;;3.92;2.15;;;31.50;40.10;;;;;;5025232;28;20041;-76
2022/08/13 12:27:33;;;;;;;4.63;2.20;;;31.50;39.50;;;;;;5030331;28;20401;-76
2022/08/13 12:29:59;;;;;;;6.45;2.30;;;31.60;39.20;;;;;;5026066;28;20575;-74
2022/08/13 12:32:24;;;;;;;4.70;2.27;;;31.70;38.80;;;;;;5031205;28;20163;-73
2022/08/13 12:34:50;;;;;;;3.63;2.10;;;31.80;39.20;;;;;;5028758;28;20037;-74
2022/08/13 12:37:16;;;;;;;10.63;3.53;;;31.80;39.70;;;;;;5030471;28;20396;-75
2022/08/13 12:39:42;;;;;;;2.95;2.30;;;31.90;41.40;;;;;;5024773;28;20397;-77
2022/08/13 12:42:07;;;;;;;6.10;2.10;;;31.90;40.30;;;;;;5027225;28;20059;-75
2022/08/13 12:44:33;;;;;;;4.93;2.30;;;32.00;39.50;;;;;;5028552;28;20049;-76
2022/08/13 12:46:59;;;;;;;6.20;2.17;;;32.00;39.70;;;;;;5031492;28;20437;-78
2022/08/13 12:49:25;;;;;;;5.88;2.45;;;32.00;39.80;;;;;;5027419;28;20049;-77
2022/08/13 12:51:50;;;;;;;2.90;2.00;;;32.00;39.50;;;;;;5021076;28;20067;-78
2022/08/13 12:54:16;;;;;;;3.20;2.20;;;32.10;40.00;;;;;;5032467;28;20041;-77
2022/08/13 12:56:43;;;;;;;6.20;2.35;;;32.20;40.30;;;;;;5029597;28;20052;-73
2022/08/13 12:59:09;;;;;;;8.55;2.50;;;32.20;40.00;;;;;;5025513;28;20045;-71
2022/08/13 13:01:34;;;;;;;6.95;2.63;;;32.20;40.30;;;;;;5023139;28;20088;-73
2022/08/13 13:04:00;;;;;;;20.10;4.70;;;32.30;40.00;;;;;;5011005;28;20050;-72
2022/08/13 13:06:26;;;;;;;7.37;2.73;;;32.30;42.60;;;;;;5026503;28;20050;-74
2022/08/13 13:08:51;;;;;;;3.13;2.50;;;32.20;43.60;;;;;;5017497;28;20399;-74
2022/08/13 13:11:17;;;;;;;4.17;2.60;;;32.20;45.30;;;;;;5031596;28;20073;-74
2022/08/13 13:13:44;;;;;;;4.37;2.53;;;32.20;44.10;;;;;;5029444;28;20073;-74